首页
METAR-TAF:

METAR-TAF

机场 :

杰克逊维尔, 佛罗里达州, 美国

纬度: 30-14-03N, 经度: 081-40-29W, 海拔: 6米

当前天气观测

该预报发布于24分钟前的02:53 UTC
风速8节,风向东南
温度 29°C
湿度 74%
气压 1019 hPa
能見度: 16.1公里
少量云层高于3000英尺
散云层高于25000英尺

METAR: KNIP 220253Z 14008KT 10SM FEW030 SCT250 29/24 A3010 RMK AO2 SLP189 T02890239 51010 $

时间: 23:17 (03:17 UTC)

预报

预报有效从21日的 23点(UTC)到 22日的 23点(UTC)
风速10节,风向东转东南
能见度10公里或以上
少量云层高于3500英尺, 积雨云.
散云层高于6000英尺
散云层高于18000英尺
多云层高于25000英尺
附近有雷暴
从 22日的 0000点(UTC)
风速6节,风向南转南东
能见度10公里或以上
少量云层高于2500英尺
少量云层高于6000英尺
散云层高于18000英尺
多云层高于25000英尺
从 22日的 0400点(UTC)
风速4节,风向
能见度10公里或以上
少量云层高于1500英尺
散云层高于25000英尺
从 22日的 0800点(UTC)
风速3节,风向多变
能见度10公里或以上
少量云层高于1000英尺
散云层高于25000英尺
从 22日的 1400点(UTC)
风速7节,风向南转南东
能见度10公里或以上
散云层高于2500英尺
散云层高于25000英尺
从 22日的 1700点(UTC)
风速10节,风向东转东南
能见度10公里或以上
多云层高于3500英尺
多云层高于25000英尺
附近有阵雨

TAF: KNIP 2123/2223 12010KT 9999 VCTS FEW035CB SCT060 SCT180 BKN250 QNH3004INS FM220000 15006KT 9999 FEW025 FEW060 SCT180 BKN250 QNH3004INS FM220400 18004KT 9999 FEW015 SCT250 QNH3001INS FM220800 VRB03KT 9999 FEW010 SCT250 QNH3001INS FM221400 15007KT 9999 SCT025 SCT250 QNH3004INS FM221700 12010KT 9999 VCSH BKN035 BKN250 QNH2997INS T26/2211Z T33/2220Z FN20061

超过4000个机场的气象观测和天气预报(METAR&TAF报告)。

可查询的气象台以黄色和红色小点在地图上表示。

将鼠标移到小点上方,可查看气象台名称。

然后点击查看天气观测和预报。

如需切换地图:点击带黑十字的绿色按钮放大地图;点击带横线的绿色按钮缩小地图;或者点击绿色箭头查看邻近地区的地图。


METAR-TAF: